createdAt,value
2017-07-07T00:00:09.040Z,1008.61
2017-07-07T00:00:18.702Z,1008.59
2017-07-07T00:00:29.031Z,1008.59
2017-07-07T00:00:39.024Z,1008.59
2017-07-07T00:00:48.683Z,1008.58
2017-07-07T00:00:59.346Z,1008.57
2017-07-07T00:01:08.677Z,1008.54
2017-07-07T00:01:18.674Z,1008.53
2017-07-07T00:01:29.002Z,1008.45
2017-07-07T00:01:39.332Z,1008.52
2017-07-07T00:01:48.990Z,1008.51
2017-07-07T00:01:58.988Z,1008.5
2017-07-07T00:02:08.650Z,1008.52
2017-07-07T00:02:19.311Z,1008.49
2017-07-07T00:02:29.307Z,1008.55
2017-07-07T00:02:38.967Z,1008.52
2017-07-07T00:02:49.297Z,1008.49
2017-07-07T00:02:59.292Z,1008.56
2017-07-07T00:03:08.616Z,1008.51
2017-07-07T00:03:18.946Z,1008.49
2017-07-07T00:03:28.946Z,1008.56
2017-07-07T00:03:38.607Z,1008.53
2017-07-07T00:03:48.939Z,1008.54
2017-07-07T00:03:59.265Z,1008.49
2017-07-07T00:04:08.923Z,1008.52
2017-07-07T00:04:18.587Z,1008.52
2017-07-07T00:04:28.581Z,1008.51
2017-07-07T00:04:38.915Z,1008.51
2017-07-07T00:04:49.296Z,1008.53
2017-07-07T00:04:58.906Z,1008.55
2017-07-07T00:05:09.239Z,1008.55
2017-07-07T00:05:18.560Z,1008.55
2017-07-07T00:05:28.891Z,1008.49
2017-07-07T00:05:39.571Z,1008.52
2017-07-07T00:05:48.877Z,1008.55
2017-07-07T00:05:58.542Z,1008.52
2017-07-07T00:06:08.536Z,1008.5
2017-07-07T00:06:18.865Z,1008.48
2017-07-07T00:06:29.198Z,1008.46
2017-07-07T00:06:38.518Z,1008.46
2017-07-07T00:06:48.854Z,1008.46
2017-07-07T00:06:58.851Z,1008.43
2017-07-07T00:07:08.508Z,1008.4
2017-07-07T00:07:18.505Z,1008.43
2017-07-07T00:07:28.496Z,1008.45
2017-07-07T00:07:39.165Z,1008.45
2017-07-07T00:07:48.823Z,1008.42
2017-07-07T00:07:59.152Z,1008.44
2017-07-07T00:08:08.480Z,1008.4
2017-07-07T00:08:18.813Z,1008.39
2017-07-07T00:08:28.802Z,1008.39
2017-07-07T00:08:38.803Z,1008.42
2017-07-07T00:08:48.462Z,1008.39
2017-07-07T00:08:58.795Z,1008.37
2017-07-07T00:09:08.455Z,1008.35
2017-07-07T00:09:18.782Z,1008.35
2017-07-07T00:09:28.776Z,1008.31
2017-07-07T00:09:38.436Z,1008.32
2017-07-07T00:09:49.103Z,1008.36
2017-07-07T00:09:58.825Z,1008.34
2017-07-07T00:10:08.417Z,1008.3
2017-07-07T00:10:19.089Z,1008.35
2017-07-07T00:10:29.084Z,1008.32
2017-07-07T00:10:38.744Z,1008.36
2017-07-07T00:10:48.408Z,1008.31
2017-07-07T00:10:58.737Z,1008.34
2017-07-07T00:11:08.729Z,1008.32
2017-07-07T00:11:18.728Z,1008.3
2017-07-07T00:11:28.388Z,1008.34
2017-07-07T00:11:38.379Z,1008.28
2017-07-07T00:11:48.715Z,1008.31
2017-07-07T00:11:59.035Z,1008.28
2017-07-07T00:12:08.365Z,1008.33
2017-07-07T00:12:18.362Z,1008.31
2017-07-07T00:12:28.690Z,1008.32
2017-07-07T00:12:38.691Z,1008.37
2017-07-07T00:12:48.686Z,1008.34
2017-07-07T00:12:58.678Z,1008.32
2017-07-07T00:13:08.348Z,1008.36
2017-07-07T00:13:18.342Z,1008.31
2017-07-07T00:13:28.998Z,1008.33
2017-07-07T00:13:38.329Z,1008.32
2017-07-07T00:13:48.318Z,1008.29
2017-07-07T00:13:58.655Z,1008.33
2017-07-07T00:14:08.314Z,1008.32
2017-07-07T00:14:18.303Z,1008.32
2017-07-07T00:14:28.637Z,1008.26
2017-07-07T00:14:38.298Z,1008.35
2017-07-07T00:14:48.292Z,1008.27
2017-07-07T00:14:58.622Z,1008.29
2017-07-07T00:15:08.614Z,1008.35
2017-07-07T00:15:18.615Z,1008.33
2017-07-07T00:15:28.614Z,1008.28
2017-07-07T00:15:38.271Z,1008.27
2017-07-07T00:15:48.939Z,1008.32
2017-07-07T00:15:58.941Z,1008.25
2017-07-07T00:16:08.590Z,1008.22
2017-07-07T00:16:18.926Z,1008.22
2017-07-07T00:16:28.584Z,1008.23
2017-07-07T00:16:38.574Z,1008.21
2017-07-07T00:16:48.571Z,1008.2
2017-07-07T00:16:58.570Z,1008.2
2017-07-07T00:17:08.231Z,1008.16
2017-07-07T00:17:18.893Z,1008.14
2017-07-07T00:17:28.555Z,1008.15
2017-07-07T00:17:38.214Z,1008.18
2017-07-07T00:17:48.545Z,1008.16
2017-07-07T00:17:58.875Z,1008.16
2017-07-07T00:18:08.200Z,1008.09
2017-07-07T00:18:18.865Z,1008.15
2017-07-07T00:18:28.526Z,1008.14
2017-07-07T00:18:38.854Z,1008.1
2017-07-07T00:18:48.515Z,1008.13
2017-07-07T00:18:58.845Z,1008.08
2017-07-07T00:19:08.509Z,1008.12
2017-07-07T00:19:18.167Z,1008.09
2017-07-07T00:19:28.493Z,1008.08
2017-07-07T00:19:38.158Z,1008.08
2017-07-07T00:19:48.151Z,1008.09
2017-07-07T00:19:58.481Z,1008.06
2017-07-07T00:20:08.475Z,1008.09
2017-07-07T00:20:18.476Z,1008.08
2017-07-07T00:20:28.133Z,1008.06
2017-07-07T00:20:38.459Z,1008.02
2017-07-07T00:20:48.463Z,1008.03
2017-07-07T00:20:58.791Z,1008.08
2017-07-07T00:21:08.119Z,1008.04
2017-07-07T00:21:18.447Z,1008.03
2017-07-07T00:21:28.777Z,1008.02
2017-07-07T00:21:38.100Z,1008.02
2017-07-07T00:21:48.764Z,1008.03
2017-07-07T00:21:58.089Z,1008.01
2017-07-07T00:22:08.421Z,1008.02
2017-07-07T00:22:18.415Z,1008.01
2017-07-07T00:22:28.074Z,1007.99
2017-07-07T00:22:38.747Z,1008.01
2017-07-07T00:22:48.066Z,1008
2017-07-07T00:22:58.400Z,1007.95
2017-07-07T00:23:08.394Z,1007.95
2017-07-07T00:23:18.053Z,1008.01
2017-07-07T00:23:28.385Z,1007.95
2017-07-07T00:23:38.046Z,1007.93
2017-07-07T00:23:48.035Z,1007.95
2017-07-07T00:23:58.369Z,1007.92
2017-07-07T00:24:08.697Z,1007.92
2017-07-07T00:24:18.694Z,1007.97
2017-07-07T00:24:28.356Z,1007.98
2017-07-07T00:24:38.690Z,1007.96
2017-07-07T00:24:48.348Z,1007.92
2017-07-07T00:24:58.012Z,1007.91
2017-07-07T00:25:08.339Z,1007.93
2017-07-07T00:25:18.666Z,1007.9
2017-07-07T00:25:28.323Z,1007.9
2017-07-07T00:25:38.322Z,1007.94
2017-07-07T00:25:48.322Z,1007.91
2017-07-07T00:25:58.311Z,1007.88
2017-07-07T00:26:08.312Z,1007.86
2017-07-07T00:26:18.301Z,1007.87
2017-07-07T00:26:28.635Z,1007.88
2017-07-07T00:26:37.960Z,1007.88
2017-07-07T00:26:48.292Z,1007.9
2017-07-07T00:26:58.282Z,1007.88
2017-07-07T00:27:07.947Z,1007.85
2017-07-07T00:27:18.276Z,1007.9
2017-07-07T00:27:28.270Z,1007.87
2017-07-07T00:27:38.269Z,1007.82
2017-07-07T00:27:48.264Z,1007.88
2017-07-07T00:27:58.259Z,1007.88
2017-07-07T00:28:08.252Z,1007.89
2017-07-07T00:28:18.248Z,1007.84
2017-07-07T00:28:28.244Z,1007.83
2017-07-07T00:28:38.242Z,1007.79
2017-07-07T00:28:48.568Z,1007.82
2017-07-07T00:28:57.898Z,1007.84
2017-07-07T00:29:07.889Z,1007.85
2017-07-07T00:29:17.886Z,1007.81
2017-07-07T00:29:28.550Z,1007.85
2017-07-07T00:29:38.218Z,1007.8
2017-07-07T00:29:47.870Z,1007.81
2017-07-07T00:29:58.533Z,1007.81
2017-07-07T00:30:07.860Z,1007.81
2017-07-07T00:30:17.854Z,1007.79
2017-07-07T00:30:27.851Z,1007.82
2017-07-07T00:30:38.184Z,1007.81
2017-07-07T00:30:47.844Z,1007.76
2017-07-07T00:30:58.174Z,1007.79
2017-07-07T00:31:08.166Z,1007.77
2017-07-07T00:31:18.157Z,1007.76
2017-07-07T00:31:28.159Z,1007.78
2017-07-07T00:31:38.484Z,1007.76
2017-07-07T00:31:48.489Z,1007.76
2017-07-07T00:31:58.476Z,1007.79
2017-07-07T00:32:08.140Z,1007.79
2017-07-07T00:32:17.800Z,1007.81
2017-07-07T00:32:28.131Z,1007.8
2017-07-07T00:32:38.129Z,1007.79
2017-07-07T00:32:48.455Z,1007.81
2017-07-07T00:32:58.117Z,1007.8
2017-07-07T00:33:08.445Z,1007.78
2017-07-07T00:33:18.106Z,1007.79
2017-07-07T00:33:28.103Z,1007.77
2017-07-07T00:33:38.096Z,1007.81
2017-07-07T00:33:48.092Z,1007.81
2017-07-07T00:33:57.756Z,1007.83
2017-07-07T00:34:08.079Z,1007.82
2017-07-07T00:34:17.740Z,1007.79
2017-07-07T00:34:28.074Z,1007.79
2017-07-07T00:34:38.070Z,1007.76
2017-07-07T00:34:48.400Z,1007.77
2017-07-07T00:34:58.393Z,1007.81
2017-07-07T00:35:08.059Z,1007.81
2017-07-07T00:35:18.383Z,1007.74
2017-07-07T00:35:27.707Z,1007.79
2017-07-07T00:35:37.704Z,1007.75
2017-07-07T00:35:48.035Z,1007.78
2017-07-07T00:35:57.695Z,1007.78
2017-07-07T00:36:07.688Z,1007.78
2017-07-07T00:36:17.684Z,1007.75
2017-07-07T00:36:28.022Z,1007.74
2017-07-07T00:36:38.708Z,1007.79
2017-07-07T00:36:48.007Z,1007.74
2017-07-07T00:36:58.003Z,1007.76
2017-07-07T00:37:08.332Z,1007.72
2017-07-07T00:37:18.329Z,1007.79
2017-07-07T00:37:28.323Z,1007.79
2017-07-07T00:37:38.319Z,1007.75
2017-07-07T00:37:47.979Z,1007.77
2017-07-07T00:37:57.977Z,1007.74
2017-07-07T00:38:08.304Z,1007.76
2017-07-07T00:38:17.965Z,1007.75
2017-07-07T00:38:27.624Z,1007.76
2017-07-07T00:38:37.626Z,1007.74
2017-07-07T00:38:47.621Z,1007.76
2017-07-07T00:38:57.612Z,1007.74
2017-07-07T00:39:07.944Z,1007.72
2017-07-07T00:39:18.275Z,1007.75
2017-07-07T00:39:27.598Z,1007.69
2017-07-07T00:39:38.266Z,1007.75
2017-07-07T00:39:47.588Z,1007.74
2017-07-07T00:39:58.262Z,1007.72
2017-07-07T00:40:08.246Z,1007.71
2017-07-07T00:40:18.246Z,1007.71
2017-07-07T00:40:27.575Z,1007.7
2017-07-07T00:40:38.238Z,1007.67
2017-07-07T00:40:47.559Z,1007.68
2017-07-07T00:40:57.676Z,1007.66
2017-07-07T00:41:08.221Z,1007.7
2017-07-07T00:41:17.880Z,1007.68
2017-07-07T00:41:27.878Z,1007.71
2017-07-07T00:41:37.875Z,1007.7
2017-07-07T00:41:47.864Z,1007.65
2017-07-07T00:41:57.526Z,1007.7
2017-07-07T00:42:07.525Z,1007.67
2017-07-07T00:42:17.518Z,1007.66
2017-07-07T00:42:28.182Z,1007.62
2017-07-07T00:42:37.508Z,1007.66
2017-07-07T00:42:47.505Z,1007.62
2017-07-07T00:42:58.169Z,1007.62
2017-07-07T00:43:07.834Z,1007.71
2017-07-07T00:43:17.827Z,1007.61
2017-07-07T00:43:27.485Z,1007.65
2017-07-07T00:43:38.150Z,1007.6
2017-07-07T00:43:47.813Z,1007.64
2017-07-07T00:43:58.139Z,1007.62
2017-07-07T00:44:07.802Z,1007.62
2017-07-07T00:44:17.799Z,1007.62
2017-07-07T00:44:28.127Z,1007.64
2017-07-07T00:44:37.789Z,1007.63
2017-07-07T00:44:47.781Z,1007.62
2017-07-07T00:44:57.779Z,1007.59
2017-07-07T00:45:08.112Z,1007.61
2017-07-07T00:45:18.102Z,1007.55
2017-07-07T00:45:27.765Z,1007.59
2017-07-07T00:45:37.426Z,1007.65
2017-07-07T00:45:47.418Z,1007.6
2017-07-07T00:45:57.749Z,1007.61
2017-07-07T00:46:07.742Z,1007.59
2017-07-07T00:46:17.400Z,1007.61
2017-07-07T00:46:27.735Z,1007.6
2017-07-07T00:46:37.394Z,1007.54
2017-07-07T00:46:48.061Z,1007.57
2017-07-07T00:46:57.389Z,1007.6
2017-07-07T00:47:07.716Z,1007.59
2017-07-07T00:47:17.714Z,1007.58
2017-07-07T00:47:28.041Z,1007.55
2017-07-07T00:47:37.364Z,1007.61
2017-07-07T00:47:47.366Z,1007.54
2017-07-07T00:47:57.358Z,1007.53
2017-07-07T00:48:07.350Z,1007.59
2017-07-07T00:48:18.018Z,1007.55
2017-07-07T00:48:28.013Z,1007.57
2017-07-07T00:48:37.344Z,1007.52
2017-07-07T00:48:47.668Z,1007.56
2017-07-07T00:48:57.336Z,1007.58
2017-07-07T00:49:07.662Z,1007.59
2017-07-07T00:49:17.320Z,1007.58
2017-07-07T00:49:27.651Z,1007.56
2017-07-07T00:49:37.643Z,1007.6
2017-07-07T00:49:47.641Z,1007.61
2017-07-07T00:49:57.641Z,1007.59
2017-07-07T00:50:07.627Z,1007.58
2017-07-07T00:50:17.634Z,1007.55
2017-07-07T00:50:27.289Z,1007.55
2017-07-07T00:50:37.955Z,1007.58
2017-07-07T00:50:47.613Z,1007.54
2017-07-07T00:50:57.947Z,1007.55
2017-07-07T00:51:07.603Z,1007.53
2017-07-07T00:51:17.266Z,1007.53
2017-07-07T00:51:27.258Z,1007.5
2017-07-07T00:51:37.925Z,1007.55
2017-07-07T00:51:47.255Z,1007.52
2017-07-07T00:51:57.579Z,1007.46
2017-07-07T00:52:07.574Z,1007.46
2017-07-07T00:52:17.231Z,1007.49
2017-07-07T00:52:27.231Z,1007.49
2017-07-07T00:52:37.898Z,1007.44
2017-07-07T00:52:47.562Z,1007.49
2017-07-07T00:52:57.219Z,1007.48
2017-07-07T00:53:07.547Z,1007.46
2017-07-07T00:53:17.542Z,1007.43
2017-07-07T00:53:27.533Z,1007.45
2017-07-07T00:53:37.203Z,1007.4
2017-07-07T00:53:47.533Z,1007.42
2017-07-07T00:53:57.525Z,1007.37
2017-07-07T00:54:07.185Z,1007.42
2017-07-07T00:54:17.177Z,1007.38
2017-07-07T00:54:27.527Z,1007.42
2017-07-07T00:54:37.172Z,1007.37
2017-07-07T00:54:47.193Z,1007.37
2017-07-07T00:54:57.164Z,1007.35
2017-07-07T00:55:07.492Z,1007.36
2017-07-07T00:55:17.482Z,1007.36
2017-07-07T00:55:27.483Z,1007.43
2017-07-07T00:55:37.476Z,1007.4
2017-07-07T00:55:47.470Z,1007.38
2017-07-07T00:55:57.467Z,1007.4
2017-07-07T00:56:07.129Z,1007.4
2017-07-07T00:56:17.461Z,1007.41
2017-07-07T00:56:27.122Z,1007.42
2017-07-07T00:56:37.450Z,1007.41
2017-07-07T00:56:47.110Z,1007.43
2017-07-07T00:56:57.435Z,1007.48
2017-07-07T00:57:07.771Z,1007.46
2017-07-07T00:57:17.426Z,1007.44
2017-07-07T00:57:27.429Z,1007.45
2017-07-07T00:57:37.083Z,1007.47
2017-07-07T00:57:47.414Z,1007.47
2017-07-07T00:57:57.410Z,1007.44
2017-07-07T00:58:07.073Z,1007.41
2017-07-07T00:58:17.736Z,1007.47
2017-07-07T00:58:27.063Z,1007.44
2017-07-07T00:58:37.392Z,1007.42
2017-07-07T00:58:47.052Z,1007.44
2017-07-07T00:58:57.382Z,1007.38
2017-07-07T00:59:07.043Z,1007.38
2017-07-07T00:59:17.375Z,1007.47
2017-07-07T00:59:27.035Z,1007.42
2017-07-07T00:59:37.367Z,1007.42
2017-07-07T00:59:47.361Z,1007.42
2017-07-07T00:59:57.021Z,1007.48
2017-07-07T01:00:07.354Z,1007.45
2017-07-07T01:00:17.015Z,1007.46
2017-07-07T01:00:27.009Z,1007.5
2017-07-07T01:00:37.335Z,1007.52
2017-07-07T01:00:47.328Z,1007.48
2017-07-07T01:00:57.323Z,1007.49
2017-07-07T01:01:06.988Z,1007.57
2017-07-07T01:01:16.982Z,1007.49
2017-07-07T01:01:27.649Z,1007.51
2017-07-07T01:01:37.306Z,1007.53
2017-07-07T01:01:47.300Z,1007.52
2017-07-07T01:01:56.960Z,1007.51
2017-07-07T01:02:07.294Z,1007.51
2017-07-07T01:02:16.951Z,1007.48
2017-07-07T01:02:26.947Z,1007.5
2017-07-07T01:02:37.613Z,1007.54
2017-07-07T01:02:47.275Z,1007.52
2017-07-07T01:02:57.274Z,1007.52
2017-07-07T01:03:06.930Z,1007.49
2017-07-07T01:03:17.262Z,1007.49
2017-07-07T01:03:27.593Z,1007.5
2017-07-07T01:03:36.916Z,1007.51
2017-07-07T01:03:47.579Z,1007.5
2017-07-07T01:03:57.241Z,1007.51
2017-07-07T01:04:07.233Z,1007.53
2017-07-07T01:04:17.229Z,1007.47
2017-07-07T01:04:27.559Z,1007.47
2017-07-07T01:04:36.889Z,1007.49
2017-07-07T01:04:46.883Z,1007.52
2017-07-07T01:04:57.212Z,1007.56
2017-07-07T01:05:07.208Z,1007.56
2017-07-07T01:05:17.199Z,1007.56
2017-07-07T01:05:27.197Z,1007.54
2017-07-07T01:05:36.856Z,1007.51
2017-07-07T01:05:47.190Z,1007.62
2017-07-07T01:05:57.190Z,1007.52
2017-07-07T01:06:07.181Z,1007.62
2017-07-07T01:06:17.178Z,1007.57
2017-07-07T01:06:26.833Z,1007.63
2017-07-07T01:06:37.162Z,1007.56
2017-07-07T01:06:47.159Z,1007.58
2017-07-07T01:06:57.159Z,1007.65
2017-07-07T01:07:06.816Z,1007.59
2017-07-07T01:07:17.151Z,1007.64
2017-07-07T01:07:26.804Z,1007.62
2017-07-07T01:07:37.139Z,1007.6
2017-07-07T01:07:46.796Z,1007.66
2017-07-07T01:07:57.125Z,1007.62
2017-07-07T01:08:06.788Z,1007.65
2017-07-07T01:08:16.783Z,1007.69
2017-07-07T01:08:27.450Z,1007.63
2017-07-07T01:08:37.797Z,1007.64
2017-07-07T01:08:47.103Z,1007.67
2017-07-07T01:08:56.762Z,1007.65
2017-07-07T01:09:07.091Z,1007.67
2017-07-07T01:09:17.443Z,1007.63
2017-07-07T01:09:27.085Z,1007.65
2017-07-07T01:09:36.751Z,1007.65
2017-07-07T01:09:46.740Z,1007.68
2017-07-07T01:09:57.074Z,1007.67
2017-07-07T01:10:06.728Z,1007.68
2017-07-07T01:10:16.726Z,1007.66
2017-07-07T01:10:26.722Z,1007.69
2017-07-07T01:10:36.718Z,1007.69
2017-07-07T01:10:46.712Z,1007.67
2017-07-07T01:10:57.375Z,1007.68
2017-07-07T01:11:07.371Z,1007.68
2017-07-07T01:11:17.372Z,1007.69
2017-07-07T01:11:27.364Z,1007.74
2017-07-07T01:11:37.021Z,1007.72
2017-07-07T01:11:46.687Z,1007.68
2017-07-07T01:11:56.681Z,1007.65
2017-07-07T01:12:06.677Z,1007.7
2017-07-07T01:12:17.338Z,1007.7
2017-07-07T01:12:26.667Z,1007.69
2017-07-07T01:12:36.996Z,1007.69
2017-07-07T01:12:46.991Z,1007.71
2017-07-07T01:12:56.653Z,1007.72
2017-07-07T01:13:06.645Z,1007.69
2017-07-07T01:13:16.643Z,1007.67
2017-07-07T01:13:27.310Z,1007.72
2017-07-07T01:13:36.635Z,1007.72
2017-07-07T01:13:46.966Z,1007.69
2017-07-07T01:13:56.622Z,1007.69
2017-07-07T01:14:07.288Z,1007.7
2017-07-07T01:14:16.952Z,1007.71
2017-07-07T01:14:26.613Z,1007.69
2017-07-07T01:14:36.936Z,1007.73
2017-07-07T01:14:46.601Z,1007.76
2017-07-07T01:14:56.599Z,1007.71
2017-07-07T01:15:06.593Z,1007.77
2017-07-07T01:15:16.588Z,1007.73
2017-07-07T01:15:26.910Z,1007.7
2017-07-07T01:15:36.911Z,1007.68
2017-07-07T01:15:46.573Z,1007.71
2017-07-07T01:15:56.566Z,1007.7
2017-07-07T01:16:06.896Z,1007.7
2017-07-07T01:16:16.559Z,1007.7
2017-07-07T01:16:26.551Z,1007.73
2017-07-07T01:16:36.883Z,1007.7
2017-07-07T01:16:47.215Z,1007.74
2017-07-07T01:16:56.536Z,1007.72
2017-07-07T01:17:06.532Z,1007.68
2017-07-07T01:17:16.864Z,1007.72
2017-07-07T01:17:26.529Z,1007.76
2017-07-07T01:17:36.853Z,1007.75
2017-07-07T01:17:46.851Z,1007.7
2017-07-07T01:17:56.844Z,1007.74
2017-07-07T01:18:06.839Z,1007.7
2017-07-07T01:18:16.498Z,1007.75
2017-07-07T01:18:26.493Z,1007.77
2017-07-07T01:18:37.160Z,1007.77
2017-07-07T01:18:46.821Z,1007.77
2017-07-07T01:18:56.813Z,1007.76
2017-07-07T01:19:06.809Z,1007.77
2017-07-07T01:19:16.804Z,1007.77
2017-07-07T01:19:26.802Z,1007.78
2017-07-07T01:19:36.796Z,1007.75
2017-07-07T01:19:46.789Z,1007.74
2017-07-07T01:19:56.453Z,1007.75
2017-07-07T01:20:06.782Z,1007.78
2017-07-07T01:20:16.776Z,1007.77
2017-07-07T01:20:26.771Z,1007.77
2017-07-07T01:20:36.432Z,1007.74
2017-07-07T01:20:46.763Z,1007.79
2017-07-07T01:20:56.424Z,1007.77
2017-07-07T01:21:06.419Z,1007.77
2017-07-07T01:21:16.412Z,1007.81
2017-07-07T01:21:26.743Z,1007.81
2017-07-07T01:21:37.076Z,1007.82
2017-07-07T01:21:46.735Z,1007.8
2017-07-07T01:21:56.397Z,1007.79
2017-07-07T01:22:06.725Z,1007.75
2017-07-07T01:22:16.389Z,1007.79
2017-07-07T01:22:26.381Z,1007.76
2017-07-07T01:22:36.711Z,1007.79
2017-07-07T01:22:46.368Z,1007.77
2017-07-07T01:22:57.039Z,1007.8
2017-07-07T01:23:06.362Z,1007.83
2017-07-07T01:23:16.355Z,1007.74
2017-07-07T01:23:26.683Z,1007.78
2017-07-07T01:23:36.680Z,1007.77
2017-07-07T01:23:46.345Z,1007.77
2017-07-07T01:23:56.338Z,1007.8
2017-07-07T01:24:06.333Z,1007.78
2017-07-07T01:24:16.330Z,1007.76
2017-07-07T01:24:26.326Z,1007.75
2017-07-07T01:24:36.656Z,1007.77
2017-07-07T01:24:46.649Z,1007.8
2017-07-07T01:24:56.972Z,1007.8
2017-07-07T01:25:06.310Z,1007.81
2017-07-07T01:25:16.300Z,1007.81
2017-07-07T01:25:26.968Z,1007.81
2017-07-07T01:25:36.625Z,1007.83
2017-07-07T01:25:46.617Z,1007.82
2017-07-07T01:25:56.624Z,1007.82
2017-07-07T01:26:06.271Z,1007.83
2017-07-07T01:26:16.948Z,1007.81
2017-07-07T01:26:26.602Z,1007.84
2017-07-07T01:26:36.600Z,1007.81
2017-07-07T01:26:46.380Z,1007.84
2017-07-07T01:26:56.928Z,1007.83
2017-07-07T01:27:06.249Z,1007.81
2017-07-07T01:27:16.583Z,1007.83
2017-07-07T01:27:26.571Z,1007.78
2017-07-07T01:27:36.239Z,1007.83
2017-07-07T01:27:46.904Z,1007.8
2017-07-07T01:27:56.897Z,1007.8
2017-07-07T01:28:06.557Z,1007.79
2017-07-07T01:28:16.212Z,1007.8
2017-07-07T01:28:26.211Z,1007.83
2017-07-07T01:28:36.882Z,1007.79
2017-07-07T01:28:46.540Z,1007.81
2017-07-07T01:28:56.869Z,1007.82
2017-07-07T01:29:06.527Z,1007.81
2017-07-07T01:29:16.856Z,1007.77
2017-07-07T01:29:26.181Z,1007.73
2017-07-07T01:29:36.181Z,1007.76
2017-07-07T01:29:46.175Z,1007.77
2017-07-07T01:29:56.171Z,1007.79
2017-07-07T01:30:06.162Z,1007.77
2017-07-07T01:30:16.491Z,1007.74
2017-07-07T01:30:26.155Z,1007.8
2017-07-07T01:30:36.481Z,1007.77
2017-07-07T01:30:46.474Z,1007.76
2017-07-07T01:30:56.470Z,1007.75
2017-07-07T01:31:06.470Z,1007.75
2017-07-07T01:31:16.132Z,1007.74
2017-07-07T01:31:26.459Z,1007.78
2017-07-07T01:31:36.121Z,1007.76
2017-07-07T01:31:46.789Z,1007.71
2017-07-07T01:31:56.444Z,1007.78
2017-07-07T01:32:06.107Z,1007.77
2017-07-07T01:32:16.104Z,1007.81
2017-07-07T01:32:26.430Z,1007.84
2017-07-07T01:32:36.092Z,1007.79
2017-07-07T01:32:46.087Z,1007.85
2017-07-07T01:32:56.757Z,1007.84
2017-07-07T01:33:06.075Z,1007.82
2017-07-07T01:33:16.407Z,1007.84
2017-07-07T01:33:26.456Z,1007.84
2017-07-07T01:33:36.736Z,1007.87
2017-07-07T01:33:46.725Z,1007.89
2017-07-07T01:33:56.051Z,1007.88
2017-07-07T01:34:06.389Z,1007.88
2017-07-07T01:34:16.044Z,1007.93
2017-07-07T01:34:26.709Z,1007.83
2017-07-07T01:34:36.370Z,1007.87
2017-07-07T01:34:46.699Z,1007.86
2017-07-07T01:34:56.365Z,1007.9
2017-07-07T01:35:06.020Z,1007.86
2017-07-07T01:35:16.688Z,1007.91
2017-07-07T01:35:26.015Z,1007.92
2017-07-07T01:35:36.341Z,1007.93
2017-07-07T01:35:46.336Z,1007.95
2017-07-07T01:35:55.993Z,1007.92
2017-07-07T01:36:06.331Z,1007.96
2017-07-07T01:36:16.320Z,1007.9
2017-07-07T01:36:25.980Z,1007.94
2017-07-07T01:36:36.313Z,1007.9
2017-07-07T01:36:46.310Z,1007.89
2017-07-07T01:36:55.972Z,1007.96
2017-07-07T01:37:06.299Z,1007.93
2017-07-07T01:37:15.960Z,1007.95
2017-07-07T01:37:26.291Z,1007.96
2017-07-07T01:37:36.281Z,1007.92
2017-07-07T01:37:46.846Z,1007.93
2017-07-07T01:37:56.279Z,1007.95
2017-07-07T01:38:05.934Z,1007.97
2017-07-07T01:38:16.266Z,1007.9
2017-07-07T01:38:26.260Z,1007.9
2017-07-07T01:38:36.255Z,1007.94
2017-07-07T01:38:46.250Z,1007.93
2017-07-07T01:38:56.583Z,1007.91
2017-07-07T01:39:06.243Z,1007.91
2017-07-07T01:39:15.902Z,1007.94
2017-07-07T01:39:25.901Z,1007.93
2017-07-07T01:39:36.565Z,1007.95
2017-07-07T01:39:45.888Z,1007.94
2017-07-07T01:39:56.220Z,1007.98
2017-07-07T01:40:06.207Z,1007.98
2017-07-07T01:40:16.209Z,1007.93
2017-07-07T01:40:25.866Z,1007.98
2017-07-07T01:40:36.534Z,1007.99
2017-07-07T01:40:46.197Z,1007.97
2017-07-07T01:40:56.529Z,1008
2017-07-07T01:41:05.851Z,1008.02
2017-07-07T01:41:16.517Z,1007.97
2017-07-07T01:41:26.175Z,1007.98
2017-07-07T01:41:36.170Z,1008.02
2017-07-07T01:41:45.830Z,1007.99
2017-07-07T01:41:56.496Z,1008.02
2017-07-07T01:42:05.820Z,1007.97
2017-07-07T01:42:16.152Z,1008.01
2017-07-07T01:42:25.813Z,1008
2017-07-07T01:42:36.139Z,1008.01
2017-07-07T01:42:46.139Z,1008.01
2017-07-07T01:42:56.134Z,1008.05
2017-07-07T01:43:05.797Z,1008.05
2017-07-07T01:43:16.128Z,1008.06
2017-07-07T01:43:25.779Z,1008.05
2017-07-07T01:43:35.776Z,1008.08
2017-07-07T01:43:45.774Z,1008.05
2017-07-07T01:43:55.769Z,1008.07
2017-07-07T01:44:06.094Z,1008.06
2017-07-07T01:44:16.091Z,1008.01
2017-07-07T01:44:26.092Z,1008.08
2017-07-07T01:44:36.087Z,1008.08
2017-07-07T01:44:46.081Z,1008.12
2017-07-07T01:44:56.409Z,1008.11
2017-07-07T01:45:06.406Z,1008.13
2017-07-07T01:45:16.063Z,1008.1
2017-07-07T01:45:25.728Z,1008.11
2017-07-07T01:45:36.051Z,1008.12
2017-07-07T01:45:45.710Z,1008.14
2017-07-07T01:45:55.710Z,1008.08
2017-07-07T01:46:06.375Z,1008.1
2017-07-07T01:46:15.703Z,1008.1
2017-07-07T01:46:26.367Z,1008.11
2017-07-07T01:46:36.363Z,1008.13
2017-07-07T01:46:45.750Z,1008.1
2017-07-07T01:46:55.684Z,1008.11
2017-07-07T01:47:06.344Z,1008.15
2017-07-07T01:47:16.345Z,1008.16
2017-07-07T01:47:26.002Z,1008.17
2017-07-07T01:47:35.668Z,1008.14
2017-07-07T01:47:45.661Z,1008.17
2017-07-07T01:47:55.989Z,1008.15
2017-07-07T01:48:05.651Z,1008.16
2017-07-07T01:48:15.642Z,1008.16
2017-07-07T01:48:25.638Z,1008.18
2017-07-07T01:48:36.356Z,1008.11
2017-07-07T01:48:46.297Z,1008.13
2017-07-07T01:48:55.963Z,1008.1
2017-07-07T01:49:05.958Z,1008.13
2017-07-07T01:49:15.674Z,1008.15
2017-07-07T01:49:25.948Z,1008.13
2017-07-07T01:49:35.947Z,1008.14
2017-07-07T01:49:45.603Z,1008.14
2017-07-07T01:49:55.594Z,1008.12
2017-07-07T01:50:05.591Z,1008.14
2017-07-07T01:50:16.257Z,1008.15
2017-07-07T01:50:25.914Z,1008.15
2017-07-07T01:50:35.575Z,1008.14
2017-07-07T01:50:45.912Z,1008.17
2017-07-07T01:50:55.905Z,1008.19
2017-07-07T01:51:05.568Z,1008.17
2017-07-07T01:51:15.894Z,1008.21
2017-07-07T01:51:26.221Z,1008.21
2017-07-07T01:51:35.885Z,1008.2
2017-07-07T01:51:45.880Z,1008.2
2017-07-07T01:51:55.542Z,1008.21
2017-07-07T01:52:05.867Z,1008.22
2017-07-07T01:52:15.871Z,1008.24
2017-07-07T01:52:25.862Z,1008.22
2017-07-07T01:52:35.851Z,1008.25
2017-07-07T01:52:45.849Z,1008.25
2017-07-07T01:52:55.847Z,1008.26
2017-07-07T01:53:05.511Z,1008.26
2017-07-07T01:53:15.840Z,1008.31
2017-07-07T01:53:26.172Z,1008.31
2017-07-07T01:53:36.165Z,1008.26
2017-07-07T01:53:46.157Z,1008.25
2017-07-07T01:53:55.822Z,1008.25
2017-07-07T01:54:05.477Z,1008.19
2017-07-07T01:54:15.477Z,1008.23
2017-07-07T01:54:25.471Z,1008.21
2017-07-07T01:54:35.796Z,1008.21
2017-07-07T01:54:45.457Z,1008.21
2017-07-07T01:54:56.124Z,1008.2
2017-07-07T01:55:06.122Z,1008.21
2017-07-07T01:55:15.785Z,1008.25
2017-07-07T01:55:25.773Z,1008.22
2017-07-07T01:55:35.774Z,1008.21
2017-07-07T01:55:45.765Z,1008.21
2017-07-07T01:55:55.426Z,1008.24
2017-07-07T01:56:05.755Z,1008.27
2017-07-07T01:56:15.748Z,1008.25
2017-07-07T01:56:25.745Z,1008.25
2017-07-07T01:56:35.744Z,1008.25
2017-07-07T01:56:45.739Z,1008.24
2017-07-07T01:56:55.729Z,1008.24
2017-07-07T01:57:05.391Z,1008.2
2017-07-07T01:57:15.719Z,1008.15
2017-07-07T01:57:25.383Z,1008.17
2017-07-07T01:57:35.713Z,1008.16
2017-07-07T01:57:45.373Z,1008.15
2017-07-07T01:57:55.371Z,1008.12
2017-07-07T01:58:05.362Z,1008.13
2017-07-07T01:58:15.359Z,1008.13
2017-07-07T01:58:25.696Z,1008.15
2017-07-07T01:58:35.684Z,1008.14
2017-07-07T01:58:45.679Z,1008.15
2017-07-07T01:58:55.345Z,1008.13
2017-07-07T01:59:05.338Z,1008.15
2017-07-07T01:59:15.668Z,1008.13
2017-07-07T01:59:25.327Z,1008.19
2017-07-07T01:59:35.659Z,1008.19
2017-07-07T01:59:45.653Z,1008.22
2017-07-07T01:59:55.984Z,1008.18
2017-07-07T02:00:05.977Z,1008.14
2017-07-07T02:00:15.637Z,1008.13
2017-07-07T02:00:25.633Z,1008.09
2017-07-07T02:00:35.292Z,1008.06
2017-07-07T02:00:45.625Z,1008.05
2017-07-07T02:00:55.618Z,1007.99
2017-07-07T02:01:05.275Z,1007.96
2017-07-07T02:01:15.610Z,1008.02
2017-07-07T02:01:25.943Z,1008